Time;durP1;ratioP1;P1;durP2;ratioP2;P2;SDS_P1;SDS_P2;PMS_P1;PMS_P2;Temp;Humidity;BMP_temperature;BMP_pressure;BME280_temperature;BME280_humidity;BME280_pressure;Samples;Min_cycle;Max_cycle;Signal;HPM_P1;HPM_P2
2023/03/06 00:00:36;;;;;;;8.48;1.60;;;-0.90;59.50;;;;;;4101847;28;20033;-81
2023/03/06 00:02:36;;;;;;;6.47;1.10;;;-0.90;60.50;;;;;;4112990;28;20054;-83
2023/03/06 00:04:37;;;;;;;6.80;1.10;;;-0.90;59.70;;;;;;4115663;28;20035;-82
2023/03/06 00:06:38;;;;;;;4.38;0.95;;;-0.90;59.60;;;;;;4111360;28;20031;-82
2023/03/06 00:08:38;;;;;;;7.45;1.30;;;-0.90;59.80;;;;;;4108725;28;20580;-82
2023/03/06 00:10:39;;;;;;;8.43;1.35;;;-0.90;59.90;;;;;;4106456;28;20896;-82
2023/03/06 00:12:40;;;;;;;7.97;1.30;;;-0.90;60.10;;;;;;4097695;28;20062;-83
2023/03/06 00:14:41;;;;;;;4.50;1.10;;;-0.90;60.10;;;;;;4109505;28;20063;-83
2023/03/06 00:16:41;;;;;;;7.15;1.50;;;-0.90;60.30;;;;;;4080000;29;20036;-83
2023/03/06 00:18:42;;;;;;;6.32;1.23;;;-0.90;60.30;;;;;;4107500;28;20031;-82
2023/03/06 00:20:43;;;;;;;5.63;1.20;;;-1.00;60.30;;;;;;4110080;28;20042;-82
2023/03/06 00:22:44;;;;;;;10.93;1.98;;;-1.00;60.30;;;;;;4111052;28;20114;-82
2023/03/06 00:24:45;;;;;;;5.28;1.52;;;-1.00;60.20;;;;;;4112291;28;20054;-82
2023/03/06 00:26:46;;;;;;;5.78;1.20;;;-1.00;60.30;;;;;;4094785;28;20074;-81
2023/03/06 00:28:47;;;;;;;8.20;1.58;;;-1.00;60.30;;;;;;4110988;28;20053;-83
2023/03/06 00:30:47;;;;;;;6.80;1.55;;;-1.00;60.60;;;;;;4105316;28;20049;-83
2023/03/06 00:32:48;;;;;;;8.55;1.73;;;-1.00;60.60;;;;;;4096389;28;20043;-82
2023/03/06 00:34:50;;;;;;;6.68;1.30;;;-1.00;60.70;;;;;;4111622;28;20039;-83
2023/03/06 00:36:52;;;;;;;4.45;1.17;;;-1.00;60.90;;;;;;4080409;29;20170;-83
2023/03/06 00:38:52;;;;;;;4.57;1.33;;;-1.10;61.00;;;;;;4111802;28;20022;-82
2023/03/06 00:40:53;;;;;;;6.93;1.38;;;-1.10;61.00;;;;;;4097594;28;20031;-83
2023/03/06 00:42:54;;;;;;;11.68;1.70;;;-1.10;61.10;;;;;;4113253;28;20608;-83
2023/03/06 00:44:54;;;;;;;5.82;1.13;;;-1.10;61.30;;;;;;4095794;28;20512;-82
2023/03/06 00:46:55;;;;;;;7.90;1.10;;;-1.10;61.20;;;;;;4110811;28;20031;-81
2023/03/06 00:48:56;;;;;;;8.82;0.98;;;-1.10;61.30;;;;;;4109170;28;20030;-83
2023/03/06 00:50:56;;;;;;;10.50;1.10;;;-1.10;61.30;;;;;;4111621;28;20505;-83
2023/03/06 00:52:57;;;;;;;4.38;0.85;;;-1.10;61.40;;;;;;4096126;28;20557;-82
2023/03/06 00:54:57;;;;;;;3.80;0.88;;;-1.10;61.50;;;;;;4111393;28;20026;-82
2023/03/06 00:56:58;;;;;;;5.47;0.90;;;-1.10;61.60;;;;;;4096998;28;20036;-82
2023/03/06 00:58:59;;;;;;;7.47;0.90;;;-1.10;61.70;;;;;;4097368;28;20026;-83
2023/03/06 01:00:59;;;;;;;11.30;1.23;;;-1.10;61.80;;;;;;4097813;28;20103;-83
2023/03/06 01:03:00;;;;;;;3.05;0.65;;;-1.10;61.90;;;;;;4094148;28;20027;-83
2023/03/06 01:05:01;;;;;;;6.68;0.73;;;-1.10;61.90;;;;;;4110297;28;20051;-82
2023/03/06 01:07:01;;;;;;;7.25;1.45;;;-1.10;62.10;;;;;;4093452;28;20039;-83
2023/03/06 01:09:03;;;;;;;3.03;0.70;;;-1.10;62.10;;;;;;4095799;28;20429;-83
2023/03/06 01:11:03;;;;;;;3.22;0.88;;;-1.10;62.10;;;;;;4111846;28;20037;-83
2023/03/06 01:13:04;;;;;;;4.78;0.80;;;-1.10;62.10;;;;;;4096104;28;20031;-82
2023/03/06 01:15:06;;;;;;;4.93;1.20;;;-1.10;62.20;;;;;;4115047;28;20011;-80
2023/03/06 01:17:07;;;;;;;5.43;0.90;;;-1.10;62.10;;;;;;4116699;28;20038;-82
2023/03/06 01:19:07;;;;;;;10.13;1.33;;;-1.10;62.20;;;;;;4099608;28;20278;-82
2023/03/06 01:21:08;;;;;;;5.28;1.00;;;-1.20;62.10;;;;;;4087844;28;20031;-82
2023/03/06 01:23:08;;;;;;;3.75;1.13;;;-1.20;62.20;;;;;;4091727;28;20665;-82
2023/03/06 01:25:10;;;;;;;3.40;0.98;;;-1.20;62.10;;;;;;4092948;28;20023;-82
2023/03/06 01:27:11;;;;;;;3.67;0.93;;;-1.20;62.20;;;;;;4109153;28;20035;-82
2023/03/06 01:29:11;;;;;;;6.88;0.90;;;-1.20;62.30;;;;;;4108367;28;20149;-83
2023/03/06 01:31:12;;;;;;;8.35;0.88;;;-1.20;62.30;;;;;;4092193;28;20066;-82
2023/03/06 01:33:13;;;;;;;8.48;1.40;;;-1.20;62.50;;;;;;4093247;28;20577;-81
2023/03/06 01:35:14;;;;;;;4.28;0.93;;;-1.20;62.40;;;;;;4090803;28;20059;-83
2023/03/06 01:37:14;;;;;;;4.60;1.00;;;-1.20;62.50;;;;;;4113982;28;20027;-81
2023/03/06 01:39:15;;;;;;;5.25;0.70;;;-1.20;62.50;;;;;;4114624;28;20030;-81
2023/03/06 01:41:16;;;;;;;7.15;0.77;;;-1.20;62.50;;;;;;4108941;28;20026;-82
2023/03/06 01:43:24;;;;;;;5.18;0.90;;;-1.20;62.60;;;;;;4092080;28;20031;-82
2023/03/06 01:45:24;;;;;;;4.32;0.60;;;-1.20;62.60;;;;;;4094435;28;20426;-82
2023/03/06 01:47:25;;;;;;;7.88;0.80;;;-1.20;62.70;;;;;;4109835;28;20042;-82
2023/03/06 01:49:36;;;;;;;3.38;0.75;;;-1.20;63.00;;;;;;4108764;28;20035;-81
2023/03/06 01:52:08;;;;;;;7.70;1.00;;;-1.20;63.20;;;;;;4104848;28;20039;-82
2023/03/06 01:54:30;;;;;;;7.38;0.80;;;-1.20;63.60;;;;;;4091020;28;20169;-82
2023/03/06 01:56:32;;;;;;;7.65;0.60;;;-1.20;63.50;;;;;;4094008;28;20438;-83
2023/03/06 01:58:33;;;;;;;7.28;1.00;;;-1.10;63.70;;;;;;4108750;28;20062;-81
2023/03/06 02:00:33;;;;;;;3.88;0.50;;;-1.10;63.80;;;;;;4110524;28;20030;-83
2023/03/06 02:02:35;;;;;;;7.40;0.70;;;-1.10;64.10;;;;;;4082267;28;20119;-83
2023/03/06 02:04:38;;;;;;;4.50;0.80;;;-1.10;64.20;;;;;;4114319;28;20090;-84
2023/03/06 02:06:41;;;;;;;;;;;-1.00;64.40;;;;;;4117503;28;20109;-83
2023/03/06 02:08:42;;;;;;;7.95;0.57;;;-1.00;64.80;;;;;;4117363;28;20637;-84
2023/03/06 02:11:15;;;;;;;5.07;0.57;;;-1.00;64.70;;;;;;4100548;29;20043;-83
2023/03/06 02:13:15;;;;;;;5.90;0.63;;;-1.00;64.80;;;;;;4096974;28;20124;-82
2023/03/06 02:15:19;;;;;;;4.85;0.77;;;-0.90;65.60;;;;;;4099300;29;20035;-83
2023/03/06 02:17:21;;;;;;;4.88;0.80;;;-0.90;65.00;;;;;;4113968;28;20030;-83
2023/03/06 02:19:43;;;;;;;7.90;1.00;;;-0.90;65.00;;;;;;4096085;28;20101;-82
2023/03/06 02:21:43;;;;;;;6.82;0.90;;;-0.90;65.10;;;;;;4119338;28;20054;-82
2023/03/06 02:23:50;;;;;;;4.78;1.05;;;-0.80;65.10;;;;;;4121987;28;20027;-81
2023/03/06 02:25:52;;;;;;;4.70;0.90;;;-0.80;65.20;;;;;;4092619;28;20038;-82
2023/03/06 02:27:53;;;;;;;6.50;0.88;;;-0.80;65.00;;;;;;4107900;28;20035;-81
2023/03/06 02:29:54;;;;;;;6.78;0.70;;;-0.80;65.20;;;;;;4094866;28;20675;-82
2023/03/06 02:31:55;;;;;;;10.27;0.88;;;-0.80;65.00;;;;;;4111775;28;20680;-83
2023/03/06 02:34:13;;;;;;;2.22;0.47;;;-0.80;65.20;;;;;;4074218;29;20028;-83
2023/03/06 02:36:15;;;;;;;8.73;0.70;;;-0.80;65.20;;;;;;4108480;28;20026;-82
2023/03/06 02:38:18;;;;;;;10.95;0.88;;;-0.70;65.40;;;;;;4111331;28;20089;-82
2023/03/06 02:40:20;;;;;;;5.43;0.50;;;-0.70;65.40;;;;;;4093952;28;20019;-82
2023/03/06 02:42:24;;;;;;;5.65;0.60;;;-0.70;65.40;;;;;;4109868;28;20034;-82
2023/03/06 02:44:26;;;;;;;;;;;-0.70;65.40;;;;;;4092878;28;20035;-83
2023/03/06 02:46:26;;;;;;;5.78;0.93;;;-0.70;65.90;;;;;;4111794;28;19914;-83
2023/03/06 02:48:27;;;;;;;4.40;0.68;;;-0.70;65.50;;;;;;4094383;28;20110;-82
2023/03/06 02:50:28;;;;;;;4.28;0.80;;;-0.70;65.50;;;;;;4111094;28;20035;-82
2023/03/06 02:52:29;;;;;;;8.75;0.95;;;-0.70;65.50;;;;;;4112259;28;20035;-83
2023/03/06 02:54:30;;;;;;;6.20;0.60;;;-0.70;65.60;;;;;;4110535;28;20390;-82
2023/03/06 02:56:30;;;;;;;5.85;1.10;;;-0.70;65.60;;;;;;4107578;28;20034;-82
2023/03/06 02:58:31;;;;;;;8.65;0.75;;;-0.70;65.70;;;;;;4078766;29;20039;-83
2023/03/06 03:00:33;;;;;;;3.53;0.43;;;-0.70;65.70;;;;;;4109534;28;20035;-82
2023/03/06 03:02:33;;;;;;;8.88;0.75;;;-0.70;65.70;;;;;;4096634;28;20123;-83
2023/03/06 03:04:34;;;;;;;3.40;0.60;;;-0.70;65.80;;;;;;4103876;28;20049;-82
2023/03/06 03:06:35;;;;;;;2.05;0.35;;;-0.70;65.80;;;;;;4125997;28;20793;-82
2023/03/06 03:08:37;;;;;;;3.95;0.52;;;-0.70;65.80;;;;;;4127493;28;20022;-82
2023/03/06 03:10:37;;;;;;;6.47;0.80;;;-0.70;65.90;;;;;;4123823;28;20115;-81
2023/03/06 03:12:38;;;;;;;12.43;1.00;;;-0.70;65.90;;;;;;4112094;28;20792;-82
2023/03/06 03:14:39;;;;;;;3.70;0.68;;;-0.70;66.00;;;;;;4111996;28;20074;-83
2023/03/06 03:16:40;;;;;;;5.72;0.40;;;-0.70;66.20;;;;;;4080230;29;20549;-82
2023/03/06 03:18:43;;;;;;;6.32;0.60;;;-0.70;66.30;;;;;;4122172;28;20035;-82
2023/03/06 03:20:43;;;;;;;3.30;0.60;;;-0.70;66.30;;;;;;4112076;28;20099;-82
2023/03/06 03:22:53;;;;;;;7.32;0.60;;;-0.70;66.40;;;;;;4104578;28;20027;-81
2023/03/06 03:24:54;;;;;;;4.78;0.60;;;-0.70;66.60;;;;;;4092560;28;20031;-82
2023/03/06 03:26:55;;;;;;;5.38;0.55;;;-0.70;66.70;;;;;;4107242;28;20567;-82
2023/03/06 03:28:55;;;;;;;4.15;0.55;;;-0.70;66.80;;;;;;4092634;28;20042;-83
2023/03/06 03:31:02;;;;;;;6.18;0.73;;;-0.70;66.90;;;;;;4108705;28;20027;-82
2023/03/06 03:33:02;;;;;;;8.07;1.00;;;-0.70;67.40;;;;;;4108432;28;20038;-82
2023/03/06 03:35:05;;;;;;;2.95;0.68;;;-0.60;67.90;;;;;;4110965;28;20698;-82
2023/03/06 03:37:05;;;;;;;1.47;0.47;;;-0.60;68.10;;;;;;4108270;28;20031;-82
2023/03/06 03:39:06;;;;;;;6.20;0.75;;;-0.60;68.10;;;;;;4092660;28;20504;-82
2023/03/06 03:41:07;;;;;;;7.53;0.70;;;-0.60;68.20;;;;;;4109639;28;20034;-82
2023/03/06 03:43:07;;;;;;;5.25;0.47;;;-0.60;68.30;;;;;;4094752;28;20485;-83
2023/03/06 03:45:08;;;;;;;6.65;0.70;;;-0.60;68.10;;;;;;4111560;28;20436;-83
2023/03/06 03:47:09;;;;;;;3.00;0.80;;;-0.50;68.10;;;;;;4094583;28;20110;-81
2023/03/06 03:49:09;;;;;;;5.25;0.60;;;-0.50;68.20;;;;;;4110045;28;20535;-82
2023/03/06 03:51:12;;;;;;;3.97;0.70;;;-0.50;68.20;;;;;;4095560;28;20500;-82
2023/03/06 03:53:13;;;;;;;4.63;0.50;;;-0.50;68.20;;;;;;4110652;28;20034;-83
2023/03/06 03:55:14;;;;;;;7.45;0.70;;;-0.50;68.20;;;;;;4110420;28;20018;-82
2023/03/06 03:57:14;;;;;;;8.57;0.73;;;-0.50;68.30;;;;;;4078745;29;20171;-82
2023/03/06 03:59:15;;;;;;;5.43;0.60;;;-0.50;68.30;;;;;;4080150;29;20031;-82
2023/03/06 04:01:16;;;;;;;7.97;0.70;;;-0.50;68.30;;;;;;4110974;28;20417;-83
2023/03/06 04:03:17;;;;;;;3.65;0.50;;;-0.50;68.40;;;;;;4091267;28;20504;-83
2023/03/06 04:05:17;;;;;;;3.63;0.52;;;-0.50;69.20;;;;;;4112449;28;20043;-82
2023/03/06 04:07:18;;;;;;;13.52;0.93;;;-0.50;68.60;;;;;;4112893;28;20960;-83
2023/03/06 04:09:19;;;;;;;6.00;0.45;;;-0.50;68.60;;;;;;4094525;28;20023;-81
2023/03/06 04:11:19;;;;;;;4.72;0.40;;;-0.50;68.70;;;;;;4098276;28;20035;-84
2023/03/06 04:13:21;;;;;;;4.28;0.65;;;-0.50;68.70;;;;;;4092203;28;20634;-83
2023/03/06 04:15:22;;;;;;;7.70;0.60;;;-0.50;68.80;;;;;;4110041;28;20110;-83
2023/03/06 04:17:23;;;;;;;5.80;0.55;;;-0.50;68.70;;;;;;4085071;29;20035;-83
2023/03/06 04:19:23;;;;;;;2.30;0.38;;;-0.50;68.90;;;;;;4096718;28;20023;-83
2023/03/06 04:21:24;;;;;;;7.45;0.60;;;-0.50;68.80;;;;;;4100011;28;20532;-83
2023/03/06 04:23:26;;;;;;;12.35;1.25;;;-0.50;68.90;;;;;;4111135;28;20031;-81
2023/03/06 04:25:27;;;;;;;4.63;0.40;;;-0.60;68.80;;;;;;4109905;28;20027;-83
2023/03/06 04:27:27;;;;;;;3.05;0.45;;;-0.50;68.80;;;;;;4097570;28;20058;-83
2023/03/06 04:29:28;;;;;;;3.90;0.50;;;-0.60;68.60;;;;;;4113652;28;20118;-82
2023/03/06 04:31:29;;;;;;;8.82;0.50;;;-0.60;68.90;;;;;;4090211;28;20508;-83
2023/03/06 04:33:30;;;;;;;5.45;0.57;;;-0.60;68.60;;;;;;4092180;28;20097;-83
2023/03/06 04:35:31;;;;;;;5.15;0.50;;;-0.60;68.60;;;;;;4105533;28;20031;-82
2023/03/06 04:37:31;;;;;;;5.78;0.80;;;-0.60;68.60;;;;;;4105444;28;20026;-83
2023/03/06 04:39:32;;;;;;;4.15;0.40;;;-0.60;68.60;;;;;;4097486;28;20024;-83
2023/03/06 04:41:33;;;;;;;1.95;0.43;;;-0.60;68.60;;;;;;4093916;28;20023;-83
2023/03/06 04:43:33;;;;;;;6.03;0.63;;;-0.60;68.60;;;;;;4109583;28;20440;-83
2023/03/06 04:45:34;;;;;;;7.57;0.80;;;-0.60;68.60;;;;;;4098958;28;20026;-82
2023/03/06 04:47:35;;;;;;;4.68;0.40;;;-0.70;68.40;;;;;;4112663;28;20662;-84
2023/03/06 04:49:36;;;;;;;1.88;0.40;;;-0.70;68.50;;;;;;4075851;29;20793;-82
2023/03/06 04:51:38;;;;;;;2.22;0.20;;;-0.70;68.60;;;;;;4097619;28;20564;-83
2023/03/06 04:53:39;;;;;;;3.47;0.50;;;-0.70;68.70;;;;;;4110268;28;20031;-81
2023/03/06 04:55:39;;;;;;;3.92;0.65;;;-0.70;68.70;;;;;;4114388;28;20043;-83
2023/03/06 04:57:42;;;;;;;3.40;0.40;;;-0.80;68.80;;;;;;4114349;28;20631;-81
2023/03/06 04:59:42;;;;;;;1.87;0.30;;;-0.80;68.80;;;;;;4107385;28;20019;-81
2023/03/06 05:01:43;;;;;;;9.23;0.63;;;-0.80;68.90;;;;;;4111670;28;21048;-81
2023/03/06 05:03:44;;;;;;;2.20;0.30;;;-0.80;68.90;;;;;;4090891;29;20024;-82
2023/03/06 05:05:45;;;;;;;5.75;0.50;;;-0.80;68.90;;;;;;4108144;28;20058;-82
2023/03/06 05:07:45;;;;;;;2.50;0.32;;;-0.80;69.10;;;;;;4079431;29;20577;-82
2023/03/06 05:09:46;;;;;;;4.63;0.55;;;-0.90;69.10;;;;;;4092526;29;20656;-82
2023/03/06 05:11:47;;;;;;;5.10;0.38;;;-0.90;69.10;;;;;;4093157;28;20055;-80
2023/03/06 05:13:48;;;;;;;1.95;0.30;;;-0.90;69.20;;;;;;4107052;28;20035;-81
2023/03/06 05:15:49;;;;;;;3.97;0.68;;;-0.90;69.20;;;;;;4110189;28;21934;-82
2023/03/06 05:17:50;;;;;;;3.25;0.52;;;-0.90;69.30;;;;;;4108261;28;20031;-80
2023/03/06 05:19:50;;;;;;;3.90;0.55;;;-0.90;69.40;;;;;;4110080;28;20494;-80
2023/03/06 05:21:51;;;;;;;2.88;0.50;;;-0.90;69.40;;;;;;4096031;28;20036;-81
2023/03/06 05:23:52;;;;;;;2.40;0.50;;;-1.00;69.40;;;;;;4108447;28;20262;-80
2023/03/06 05:25:52;;;;;;;10.50;0.93;;;-1.00;69.40;;;;;;4111631;28;20420;-82
2023/03/06 05:27:53;;;;;;;4.78;0.60;;;-1.00;69.60;;;;;;4080818;29;20539;-82
2023/03/06 05:29:54;;;;;;;3.05;0.60;;;-1.00;69.60;;;;;;4113410;28;20038;-82
2023/03/06 05:31:54;;;;;;;2.08;0.35;;;-1.00;69.70;;;;;;4111578;28;20550;-80
2023/03/06 05:33:56;;;;;;;2.63;0.30;;;-1.00;69.80;;;;;;4096587;28;20372;-82
2023/03/06 05:35:57;;;;;;;4.22;0.73;;;-1.00;69.80;;;;;;4112400;28;20039;-82
2023/03/06 05:37:58;;;;;;;3.40;0.68;;;-1.00;69.90;;;;;;4107638;28;20708;-80
2023/03/06 05:39:59;;;;;;;3.30;0.60;;;-1.00;70.00;;;;;;4109675;28;20456;-80
2023/03/06 05:41:59;;;;;;;3.92;0.98;;;-1.00;70.00;;;;;;4080027;29;20055;-81
2023/03/06 05:44:00;;;;;;;4.22;0.60;;;-1.00;70.10;;;;;;4111197;28;20501;-82
2023/03/06 05:46:02;;;;;;;6.25;0.70;;;-1.00;70.20;;;;;;4094226;29;20063;-81
2023/03/06 05:48:04;;;;;;;4.00;0.60;;;-1.10;70.30;;;;;;4112640;28;20113;-81
2023/03/06 05:50:07;;;;;;;3.42;0.60;;;-1.10;70.20;;;;;;4112348;28;20031;-82
2023/03/06 05:52:10;;;;;;;3.00;0.60;;;-1.10;70.10;;;;;;4114192;28;20026;-82
2023/03/06 05:54:10;;;;;;;5.07;0.90;;;-1.10;70.30;;;;;;4109012;28;20031;-81
2023/03/06 05:56:11;;;;;;;4.80;0.80;;;-1.10;70.40;;;;;;4113826;28;20568;-82
2023/03/06 05:58:12;;;;;;;4.75;1.02;;;-1.10;70.40;;;;;;4107688;28;20023;-81
2023/03/06 06:00:14;;;;;;;3.08;1.20;;;-1.10;70.40;;;;;;4095966;28;20524;-81
2023/03/06 06:02:15;;;;;;;6.68;1.67;;;-1.10;70.30;;;;;;4111394;28;20117;-82
2023/03/06 06:04:16;;;;;;;45.15;23.17;;;-1.10;70.40;;;;;;4097456;28;20050;-84
2023/03/06 06:06:17;;;;;;;8.93;3.83;;;-1.10;70.50;;;;;;4098702;28;20039;-83
2023/03/06 06:08:20;;;;;;;9.55;2.45;;;-1.10;70.60;;;;;;4118356;28;20048;-83
2023/03/06 06:10:21;;;;;;;8.30;1.80;;;-1.10;70.60;;;;;;4103416;28;20043;-83
2023/03/06 06:12:22;;;;;;;8.30;1.98;;;-1.10;70.60;;;;;;4119775;28;20057;-83
2023/03/06 06:14:23;;;;;;;6.47;1.10;;;-1.10;70.70;;;;;;4103862;29;20436;-83
2023/03/06 06:16:24;;;;;;;4.53;1.05;;;-1.10;70.60;;;;;;4121207;28;20027;-83
2023/03/06 06:18:24;;;;;;;6.25;1.58;;;-1.10;70.80;;;;;;4118204;28;20235;-83
2023/03/06 06:20:26;;;;;;;4.60;0.90;;;-1.10;70.90;;;;;;4121388;28;20030;-84
2023/03/06 06:22:27;;;;;;;4.28;0.80;;;-1.10;70.90;;;;;;4103946;28;20022;-84
2023/03/06 06:24:28;;;;;;;2.90;0.60;;;-1.10;70.80;;;;;;4103926;29;20397;-84
2023/03/06 06:26:28;;;;;;;2.83;0.65;;;-1.10;71.00;;;;;;4103208;29;20031;-83
2023/03/06 06:28:30;;;;;;;3.65;0.60;;;-1.10;71.00;;;;;;4119405;28;20393;-83
2023/03/06 06:30:32;;;;;;;5.30;0.60;;;-1.00;71.10;;;;;;4120317;28;20030;-83
2023/03/06 06:32:32;;;;;;;5.20;0.60;;;-1.10;71.20;;;;;;4113954;28;20058;-82
2023/03/06 06:34:33;;;;;;;2.17;0.50;;;-1.10;71.30;;;;;;4082442;29;20032;-83
2023/03/06 06:36:34;;;;;;;2.03;0.45;;;-1.00;71.50;;;;;;4116721;28;20034;-84
2023/03/06 06:38:34;;;;;;;3.25;0.63;;;-1.00;71.50;;;;;;4100599;29;20389;-84
2023/03/06 06:40:35;;;;;;;4.22;0.57;;;-1.00;71.50;;;;;;4117408;28;20396;-82
2023/03/06 06:42:36;;;;;;;10.98;0.57;;;-1.00;71.60;;;;;;4114641;28;20027;-81
2023/03/06 06:44:37;;;;;;;6.07;0.50;;;-1.00;71.70;;;;;;4109312;28;20452;-82
2023/03/06 06:46:38;;;;;;;5.65;0.63;;;-0.90;71.70;;;;;;4105089;28;20083;-84
2023/03/06 06:48:39;;;;;;;10.45;0.75;;;-0.90;71.80;;;;;;4103058;29;20038;-84
2023/03/06 06:50:39;;;;;;;2.80;0.63;;;-0.90;71.90;;;;;;4095951;29;20031;-84
2023/03/06 06:52:40;;;;;;;3.22;0.40;;;-0.90;72.00;;;;;;4125087;28;20029;-82
2023/03/06 06:54:41;;;;;;;3.25;0.32;;;-0.90;72.10;;;;;;4094053;29;20060;-83
2023/03/06 06:56:42;;;;;;;5.55;0.70;;;-0.90;72.00;;;;;;4122045;28;20049;-84
2023/03/06 06:58:42;;;;;;;5.70;0.50;;;-0.80;72.10;;;;;;4102336;29;20141;-83
2023/03/06 07:00:43;;;;;;;2.22;0.25;;;-0.80;72.20;;;;;;4101656;29;20020;-84
2023/03/06 07:02:47;;;;;;;1.48;0.30;;;-0.80;72.30;;;;;;4122273;28;20250;-82
2023/03/06 07:04:49;;;;;;;4.78;0.75;;;-0.80;72.30;;;;;;4103011;28;20035;-82
2023/03/06 07:06:55;;;;;;;2.22;0.82;;;-0.70;72.50;;;;;;4118571;28;20035;-83
2023/03/06 07:08:59;;;;;;;4.57;0.65;;;-0.70;72.60;;;;;;4105820;29;20035;-83
2023/03/06 07:11:06;;;;;;;5.10;0.70;;;-0.60;72.60;;;;;;4123689;28;20069;-83
2023/03/06 07:13:07;;;;;;;4.90;0.68;;;-0.70;72.50;;;;;;4113194;28;20038;-81
2023/03/06 07:15:10;;;;;;;6.18;0.68;;;-0.70;72.60;;;;;;4131546;28;20094;-84
2023/03/06 07:17:11;;;;;;;5.93;0.57;;;-0.70;72.60;;;;;;4123066;28;20081;-83
2023/03/06 07:19:12;;;;;;;4.25;0.50;;;-0.60;72.70;;;;;;4107759;29;20047;-81
2023/03/06 07:21:13;;;;;;;5.82;0.77;;;-0.50;72.80;;;;;;4126873;28;20034;-81
2023/03/06 07:23:14;;;;;;;5.22;0.32;;;-0.50;72.80;;;;;;4117919;28;20062;-84
2023/03/06 07:25:15;;;;;;;8.30;0.80;;;-0.50;72.80;;;;;;4119259;28;20030;-83
2023/03/06 07:27:15;;;;;;;4.60;0.55;;;-0.50;72.80;;;;;;4119630;28;20098;-82
2023/03/06 07:29:16;;;;;;;4.18;0.60;;;-0.30;72.90;;;;;;4104078;28;20051;-82
2023/03/06 07:31:21;;;;;;;3.17;0.45;;;-0.30;72.90;;;;;;4102780;28;20055;-83
2023/03/06 07:33:21;;;;;;;5.43;0.40;;;-0.30;72.80;;;;;;4101603;29;20023;-82
2023/03/06 07:35:25;;;;;;;1.90;0.40;;;-0.20;73.00;;;;;;4085852;29;20050;-82
2023/03/06 07:37:27;;;;;;;9.88;0.70;;;-0.30;72.90;;;;;;4098544;28;20027;-82
2023/03/06 07:39:29;;;;;;;4.40;0.55;;;-0.30;72.90;;;;;;4099546;29;20024;-81
2023/03/06 07:41:30;;;;;;;2.93;0.50;;;-0.20;72.90;;;;;;4100423;29;20090;-82
2023/03/06 07:43:30;;;;;;;3.47;0.55;;;-0.20;73.00;;;;;;4085577;29;20044;-82
2023/03/06 07:45:32;;;;;;;5.95;0.75;;;-0.20;73.00;;;;;;4115705;28;20023;-83
2023/03/06 07:47:33;;;;;;;8.45;0.90;;;-0.10;73.00;;;;;;4099394;28;20039;-82
2023/03/06 07:49:34;;;;;;;7.68;0.52;;;-0.10;73.00;;;;;;4101546;29;20148;-82
2023/03/06 07:51:35;;;;;;;1.35;0.40;;;-0.10;73.00;;;;;;4098028;28;20061;-82
2023/03/06 07:53:36;;;;;;;10.32;0.57;;;0.00;73.20;;;;;;4118094;28;20113;-83
2023/03/06 07:55:39;;;;;;;3.65;0.75;;;0.00;73.30;;;;;;4119715;28;20493;-81
2023/03/06 07:57:40;;;;;;;4.82;0.38;;;0.10;73.30;;;;;;4100583;28;20068;-83
2023/03/06 07:59:40;;;;;;;6.43;0.70;;;0.20;73.30;;;;;;4116491;28;20068;-83
2023/03/06 08:01:41;;;;;;;6.43;0.52;;;0.20;73.20;;;;;;4084553;29;20047;-83
2023/03/06 08:03:42;;;;;;;5.20;0.50;;;0.30;73.30;;;;;;4083891;29;20557;-83
2023/03/06 08:05:43;;;;;;;6.18;0.50;;;0.30;73.50;;;;;;4079200;29;20031;-82
2023/03/06 08:07:44;;;;;;;3.25;0.52;;;0.30;73.50;;;;;;4115041;28;20050;-82
2023/03/06 08:10:05;;;;;;;7.45;0.70;;;0.40;73.40;;;;;;4098475;28;20031;-82
2023/03/06 08:12:26;;;;;;;9.10;0.70;;;0.50;73.70;;;;;;4117510;28;20059;-81
2023/03/06 08:14:46;;;;;;;6.55;0.40;;;0.50;73.50;;;;;;4114888;28;20070;-83
2023/03/06 08:17:07;;;;;;;4.80;0.50;;;0.60;73.50;;;;;;4113553;28;20038;-83
2023/03/06 08:19:28;;;;;;;3.58;0.63;;;0.60;73.30;;;;;;4100646;28;20024;-82
2023/03/06 08:21:29;;;;;;;10.00;0.63;;;0.70;73.10;;;;;;4114516;28;20053;-83
2023/03/06 08:23:50;;;;;;;2.50;0.45;;;0.80;73.00;;;;;;4112326;28;20067;-82
2023/03/06 08:26:14;;;;;;;4.13;0.50;;;0.80;72.90;;;;;;4108976;28;20034;-82
2023/03/06 08:28:35;;;;;;;;;;;0.90;72.80;;;;;;4096531;28;20031;-82
2023/03/06 08:30:57;;;;;;;6.75;0.52;;;0.90;73.10;;;;;;4098693;28;19949;-83
2023/03/06 08:33:17;;;;;;;3.63;0.47;;;1.00;72.50;;;;;;4110485;28;20139;-83
2023/03/06 08:35:35;;;;;;;1.20;0.28;;;1.00;72.00;;;;;;4095919;28;20570;-82
2023/03/06 08:37:36;;;;;;;6.45;0.63;;;1.10;72.40;;;;;;4102028;28;20090;-82
2023/03/06 08:39:56;;;;;;;6.85;0.77;;;1.10;72.40;;;;;;4113592;28;20038;-82
2023/03/06 08:42:17;;;;;;;3.15;0.65;;;1.20;72.40;;;;;;4098646;28;20506;-83
2023/03/06 08:44:37;;;;;;;5.45;0.70;;;1.20;72.40;;;;;;4098676;28;20066;-83
2023/03/06 08:46:58;;;;;;;10.10;0.95;;;1.20;72.30;;;;;;4113863;28;20608;-82
2023/03/06 08:49:19;;;;;;;7.50;0.73;;;1.30;72.40;;;;;;4101228;28;20044;-82
2023/03/06 08:51:41;;;;;;;7.47;0.75;;;1.30;72.30;;;;;;4111755;28;20038;-82
2023/03/06 08:54:02;;;;;;;3.67;0.40;;;1.40;71.90;;;;;;4100048;28;20067;-82
2023/03/06 08:56:24;;;;;;;3.25;0.90;;;1.50;72.00;;;;;;4114557;28;20062;-82
2023/03/06 08:58:45;;;;;;;9.05;0.70;;;1.50;72.30;;;;;;4115308;28;20035;-82
2023/03/06 09:01:12;;;;;;;6.70;0.65;;;1.60;72.40;;;;;;4116160;28;20050;-82
2023/03/06 09:03:33;;;;;;;4.82;0.85;;;1.70;72.30;;;;;;4115882;28;20039;-82
2023/03/06 09:05:53;;;;;;;7.88;1.00;;;1.80;72.10;;;;;;4112224;28;20034;-82
2023/03/06 09:08:14;;;;;;;8.07;0.90;;;1.90;72.00;;;;;;4112771;28;20037;-83
2023/03/06 09:10:35;;;;;;;6.50;0.80;;;1.90;71.70;;;;;;4108399;28;20023;-83
2023/03/06 09:12:37;;;;;;;2.92;0.80;;;2.10;71.80;;;;;;4113243;28;20049;-83
2023/03/06 09:14:38;;;;;;;4.68;0.70;;;2.10;71.40;;;;;;4115786;28;20030;-82
2023/03/06 09:16:38;;;;;;;6.13;0.30;;;2.20;71.10;;;;;;4114475;28;20496;-82
2023/03/06 09:18:40;;;;;;;9.93;0.77;;;2.30;70.80;;;;;;4097050;28;20031;-83
2023/03/06 09:20:40;;;;;;;9.30;0.90;;;2.40;70.40;;;;;;4083566;29;20051;-83
2023/03/06 09:22:41;;;;;;;11.52;0.65;;;2.50;70.00;;;;;;4099840;28;20675;-82
2023/03/06 09:24:42;;;;;;;8.00;0.77;;;2.60;69.60;;;;;;4102244;28;20051;-83
2023/03/06 09:26:42;;;;;;;4.93;0.70;;;2.70;68.90;;;;;;4113804;28;21137;-84
2023/03/06 09:28:43;;;;;;;4.38;0.63;;;2.70;68.70;;;;;;4098863;29;20042;-83
2023/03/06 09:30:44;;;;;;;7.35;1.08;;;2.80;68.30;;;;;;4117562;28;20165;-83
2023/03/06 09:32:44;;;;;;;9.93;0.85;;;2.80;68.20;;;;;;4085457;29;20028;-83
2023/03/06 09:34:45;;;;;;;4.03;0.40;;;2.80;68.30;;;;;;4115643;28;20485;-82
2023/03/06 09:36:45;;;;;;;4.90;0.60;;;2.80;68.30;;;;;;4115951;28;20035;-83
2023/03/06 09:38:48;;;;;;;4.78;0.70;;;2.80;68.30;;;;;;4115725;28;20042;-83
2023/03/06 09:41:02;;;;;;;5.82;0.85;;;2.80;68.10;;;;;;4114075;28;20063;-82
2023/03/06 09:43:02;;;;;;;4.15;0.52;;;2.80;67.90;;;;;;4114274;28;20047;-83
2023/03/06 09:45:04;;;;;;;5.30;0.60;;;2.80;68.00;;;;;;4120816;28;20031;-82
2023/03/06 09:47:26;;;;;;;5.53;0.45;;;2.80;68.00;;;;;;4095527;29;20039;-83
2023/03/06 09:49:48;;;;;;;6.95;0.60;;;2.80;68.30;;;;;;4114374;28;20028;-82
2023/03/06 09:52:31;;;;;;;7.90;0.70;;;2.80;68.40;;;;;;4100932;29;20557;-82
2023/03/06 09:54:47;;;;;;;5.60;0.63;;;2.80;69.10;;;;;;4049383;29;20045;-82
2023/03/06 09:56:49;;;;;;;3.33;0.50;;;2.70;69.20;;;;;;4048868;29;20040;-82
2023/03/06 09:58:54;;;;;;;2.10;0.45;;;2.70;69.90;;;;;;4031467;29;20042;-82
2023/03/06 10:01:30;;;;;;;5.50;0.70;;;2.80;69.40;;;;;;4050019;29;20044;-82
2023/03/06 10:03:49;;;;;;;9.93;0.82;;;2.80;69.50;;;;;;4051460;29;20247;-82
2023/03/06 10:05:57;;;;;;;8.48;0.88;;;2.80;69.50;;;;;;4036695;29;20043;-82
2023/03/06 10:08:05;;;;;;;6.78;1.13;;;2.80;69.70;;;;;;4033926;29;20214;-83
2023/03/06 10:10:10;;;;;;;9.00;0.50;;;2.80;69.90;;;;;;4043607;29;20404;-82
2023/03/06 10:12:24;;;;;;;3.10;0.50;;;2.90;70.10;;;;;;4045457;29;20040;-82
2023/03/06 10:14:38;;;;;;;8.30;0.50;;;3.00;70.40;;;;;;4046522;29;20161;-82
2023/03/06 10:16:39;;;;;;;11.95;0.90;;;3.00;70.30;;;;;;4018926;29;20056;-82
2023/03/06 10:18:40;;;;;;;10.00;1.10;;;3.00;70.10;;;;;;4045333;29;20032;-82
2023/03/06 10:21:01;;;;;;;3.00;0.50;;;3.10;70.10;;;;;;4048037;29;20056;-83
2023/03/06 10:23:32;;;;;;;4.68;0.95;;;3.20;69.70;;;;;;4036455;29;20503;-82
2023/03/06 10:25:42;;;;;;;4.78;0.82;;;3.20;68.50;;;;;;4041516;29;20025;-82
2023/03/06 10:27:57;;;;;;;6.50;0.68;;;3.30;67.40;;;;;;4035780;29;20033;-82
2023/03/06 10:30:17;;;;;;;5.95;0.88;;;3.30;66.70;;;;;;4078309;28;20046;-82
2023/03/06 10:32:26;;;;;;;2.85;0.50;;;3.40;66.60;;;;;;4098591;28;20134;-82
2023/03/06 10:34:35;;;;;;;8.38;0.60;;;3.50;65.50;;;;;;4104658;28;20042;-81
2023/03/06 10:36:36;;;;;;;5.18;0.65;;;3.50;64.70;;;;;;4082743;29;20043;-82
2023/03/06 10:38:39;;;;;;;4.75;0.60;;;3.50;64.90;;;;;;4102242;29;20054;-82
2023/03/06 10:41:06;;;;;;;12.55;0.73;;;3.70;65.30;;;;;;4118494;28;20052;-82
2023/03/06 10:43:10;;;;;;;4.28;0.80;;;3.60;65.00;;;;;;4089222;28;20532;-81
2023/03/06 10:45:15;;;;;;;8.20;0.60;;;3.70;64.60;;;;;;4117202;28;20034;-82
2023/03/06 10:47:29;;;;;;;4.80;0.60;;;3.70;64.00;;;;;;4118219;28;20031;-81
2023/03/06 10:49:33;;;;;;;2.93;0.40;;;3.80;63.70;;;;;;4117859;28;20023;-82